Time;durP1;ratioP1;P1;durP2;ratioP2;P2;SDS_P1;SDS_P2;PMS_P1;PMS_P2;Temp;Humidity;BMP_temperature;BMP_pressure;BME280_temperature;BME280_humidity;BME280_pressure;Samples;Min_cycle;Max_cycle;Signal;HPM_P1;HPM_P2
2024/03/06 00:02:28;;;;;;;4.35;2.25;;;11.20;67.80;;;;;;2336504;54;20980;-65
2024/03/06 00:04:54;;;;;;;4.47;2.42;;;11.30;68.00;;;;;;2585325;53;22023;-65
2024/03/06 00:07:21;;;;;;;3.83;2.15;;;11.30;68.00;;;;;;2339925;54;20948;-65
2024/03/06 00:09:50;;;;;;;5.18;2.30;;;11.30;68.10;;;;;;2586285;53;20917;-67
2024/03/06 00:12:16;;;;;;;4.95;2.45;;;11.30;68.10;;;;;;2316515;55;21942;-67
2024/03/06 00:14:42;;;;;;;4.28;2.20;;;11.20;68.00;;;;;;2339446;54;20946;-66
2024/03/06 00:17:09;;;;;;;4.40;2.05;;;11.30;68.10;;;;;;2585910;53;21004;-67
2024/03/06 00:19:35;;;;;;;4.85;2.53;;;11.30;68.10;;;;;;2339970;54;22067;-67
2024/03/06 00:22:02;;;;;;;5.10;2.00;;;11.30;68.00;;;;;;2320103;55;21010;-65
2024/03/06 00:24:28;;;;;;;4.90;2.30;;;11.30;68.00;;;;;;2335739;54;20957;-66
2024/03/06 00:26:55;;;;;;;4.50;2.37;;;11.30;68.10;;;;;;2339783;54;21031;-66
2024/03/06 00:29:21;;;;;;;4.12;2.47;;;11.30;68.10;;;;;;2338518;54;20983;-66
2024/03/06 00:31:47;;;;;;;3.87;1.80;;;11.30;68.20;;;;;;2315876;54;20964;-66
2024/03/06 00:34:15;;;;;;;4.00;2.67;;;11.30;68.10;;;;;;2316803;54;20965;-67
2024/03/06 00:36:43;;;;;;;6.03;2.55;;;11.30;68.20;;;;;;2340210;54;21252;-66
2024/03/06 00:39:14;;;;;;;4.25;2.37;;;11.30;68.20;;;;;;2340314;54;20973;-65
2024/03/06 00:41:41;;;;;;;5.05;2.30;;;11.30;68.20;;;;;;2339563;54;21012;-66
2024/03/06 00:44:07;;;;;;;4.50;2.45;;;11.30;68.20;;;;;;2586180;53;20969;-67
2024/03/06 00:46:34;;;;;;;4.45;2.60;;;11.30;68.20;;;;;;2584898;53;21020;-66
2024/03/06 00:49:00;;;;;;;3.37;2.15;;;11.30;68.30;;;;;;2584888;53;21084;-65
2024/03/06 00:51:27;;;;;;;4.72;2.75;;;11.30;68.30;;;;;;2339746;54;21540;-65
2024/03/06 00:53:55;;;;;;;4.05;2.40;;;11.30;68.30;;;;;;2585291;53;21016;-66
2024/03/06 00:56:21;;;;;;;4.65;2.50;;;11.30;68.40;;;;;;2586329;53;21224;-65
2024/03/06 00:58:48;;;;;;;4.50;2.05;;;11.30;68.40;;;;;;2585345;53;21771;-65
2024/03/06 01:01:15;;;;;;;3.58;1.95;;;11.30;68.40;;;;;;2339660;54;20929;-66
2024/03/06 01:03:42;;;;;;;4.18;2.10;;;11.40;68.50;;;;;;2565669;53;21002;-66
2024/03/06 01:06:08;;;;;;;4.50;2.17;;;11.40;68.50;;;;;;2330876;54;21107;-66
2024/03/06 01:08:35;;;;;;;4.12;2.20;;;11.40;68.40;;;;;;2339686;54;21268;-66
2024/03/06 01:11:03;;;;;;;9.88;2.80;;;11.40;68.40;;;;;;2584752;53;21021;-65
2024/03/06 01:13:29;;;;;;;4.75;2.70;;;11.40;68.40;;;;;;2551412;53;21074;-66
2024/03/06 01:15:56;;;;;;;3.97;2.50;;;11.40;68.40;;;;;;2317090;54;20940;-66
2024/03/06 01:18:23;;;;;;;4.55;2.60;;;11.30;68.30;;;;;;2339746;54;21012;-65
2024/03/06 01:20:49;;;;;;;3.72;2.30;;;11.30;68.30;;;;;;2308393;54;21008;-66
2024/03/06 01:23:16;;;;;;;4.22;2.33;;;11.30;68.40;;;;;;2546387;54;20983;-66
2024/03/06 01:25:43;;;;;;;4.25;1.95;;;11.30;68.50;;;;;;2546543;54;21039;-66
2024/03/06 01:28:12;;;;;;;5.05;2.67;;;11.30;68.50;;;;;;2308160;54;20959;-66
2024/03/06 01:30:38;;;;;;;4.03;2.28;;;11.30;68.50;;;;;;2307319;54;21814;-66
2024/03/06 01:33:05;;;;;;;3.90;2.30;;;11.30;68.60;;;;;;2546737;54;20947;-65
2024/03/06 01:35:31;;;;;;;3.47;1.87;;;11.30;68.60;;;;;;2305377;54;20940;-66
2024/03/06 01:37:58;;;;;;;3.70;1.95;;;11.30;68.60;;;;;;2546560;54;20979;-66
2024/03/06 01:40:24;;;;;;;3.70;2.03;;;11.30;68.60;;;;;;2308159;54;21197;-66
2024/03/06 01:42:51;;;;;;;4.28;2.10;;;11.40;68.80;;;;;;2546104;54;20936;-65
2024/03/06 01:45:17;;;;;;;4.95;2.00;;;11.40;68.80;;;;;;2542580;54;21395;-66
2024/03/06 01:47:44;;;;;;;3.62;2.03;;;11.40;68.80;;;;;;2307235;54;21204;-65
2024/03/06 01:50:11;;;;;;;3.40;1.67;;;11.40;68.70;;;;;;2546443;54;21003;-66
2024/03/06 01:52:38;;;;;;;2.95;1.45;;;11.40;68.70;;;;;;2307270;54;20991;-66
2024/03/06 01:55:05;;;;;;;3.37;1.05;;;11.40;68.70;;;;;;2308016;54;21292;-66
2024/03/06 01:57:34;;;;;;;2.90;1.10;;;11.40;68.70;;;;;;2307651;54;21019;-66
2024/03/06 02:00:03;;;;;;;3.97;1.30;;;11.40;68.60;;;;;;2546324;54;21284;-65
2024/03/06 02:02:29;;;;;;;3.65;0.98;;;11.40;68.60;;;;;;2307899;54;20932;-65
2024/03/06 02:04:57;;;;;;;2.15;0.93;;;11.40;68.60;;;;;;2307096;54;21259;-67
2024/03/06 02:07:23;;;;;;;4.80;0.93;;;11.40;68.60;;;;;;2546515;54;21450;-66
2024/03/06 02:09:49;;;;;;;1.75;0.93;;;11.40;68.60;;;;;;2307956;56;20995;-66
2024/03/06 02:12:16;;;;;;;1.92;0.90;;;11.30;68.50;;;;;;2546287;54;20968;-65
2024/03/06 02:14:43;;;;;;;3.92;1.15;;;11.30;68.50;;;;;;2306664;55;21500;-65
2024/03/06 02:17:11;;;;;;;2.65;0.90;;;11.30;68.50;;;;;;2306536;55;21020;-65
2024/03/06 02:19:39;;;;;;;2.22;1.10;;;11.30;68.50;;;;;;2313041;54;20944;-66
2024/03/06 02:22:07;;;;;;;2.67;0.80;;;11.30;68.50;;;;;;2307409;55;21465;-66
2024/03/06 02:24:34;;;;;;;1.60;0.70;;;11.30;68.60;;;;;;2307374;55;21011;-66
2024/03/06 02:27:01;;;;;;;1.85;0.80;;;11.30;68.60;;;;;;2546883;54;21469;-66
2024/03/06 02:29:27;;;;;;;2.65;0.70;;;11.30;68.60;;;;;;2307634;54;20948;-66
2024/03/06 02:31:53;;;;;;;2.40;0.88;;;11.30;68.60;;;;;;2546974;53;21475;-67
2024/03/06 02:34:24;;;;;;;1.55;0.70;;;11.30;68.60;;;;;;2307620;54;21029;-65
2024/03/06 02:36:51;;;;;;;1.83;0.60;;;11.30;68.60;;;;;;2306775;55;21107;-65
2024/03/06 02:39:19;;;;;;;1.73;0.70;;;11.30;68.60;;;;;;2306659;55;20972;-66
2024/03/06 02:41:45;;;;;;;2.00;0.73;;;11.30;68.70;;;;;;2312777;54;20960;-66
2024/03/06 02:44:12;;;;;;;1.77;0.80;;;11.30;68.60;;;;;;2307708;55;21323;-65
2024/03/06 02:46:38;;;;;;;1.83;0.75;;;11.30;68.60;;;;;;2546641;54;21477;-65
2024/03/06 02:49:06;;;;;;;1.70;0.70;;;11.30;68.60;;;;;;2307630;55;21027;-65
2024/03/06 02:51:33;;;;;;;2.50;1.00;;;11.30;68.50;;;;;;2546553;54;20944;-66
2024/03/06 02:54:02;;;;;;;1.92;0.82;;;11.30;68.50;;;;;;2307621;55;20971;-66
2024/03/06 02:56:31;;;;;;;2.58;1.00;;;11.30;68.50;;;;;;2308077;55;21019;-66
2024/03/06 02:58:57;;;;;;;2.10;1.00;;;11.30;68.60;;;;;;2307685;55;21397;-66
2024/03/06 03:01:24;;;;;;;2.20;0.80;;;11.30;68.60;;;;;;2307646;55;21333;-65
2024/03/06 03:03:51;;;;;;;2.17;0.88;;;11.30;68.50;;;;;;2283263;55;21665;-65
2024/03/06 03:06:17;;;;;;;2.22;0.70;;;11.30;68.60;;;;;;2549885;53;21001;-66
2024/03/06 03:08:44;;;;;;;2.35;1.15;;;11.30;68.60;;;;;;2307753;54;21532;-66
2024/03/06 03:11:11;;;;;;;2.90;1.02;;;11.30;68.60;;;;;;2307657;54;21322;-66
2024/03/06 03:13:37;;;;;;;1.70;0.70;;;11.30;68.60;;;;;;2539528;54;21011;-65
2024/03/06 03:16:04;;;;;;;2.22;0.90;;;11.30;68.60;;;;;;2306716;54;20943;-66
2024/03/06 03:18:30;;;;;;;2.12;0.80;;;11.30;68.60;;;;;;2547134;54;20996;-66
2024/03/06 03:20:57;;;;;;;2.40;0.90;;;11.30;68.60;;;;;;2542611;53;21820;-65
2024/03/06 03:23:24;;;;;;;2.30;1.00;;;11.30;68.60;;;;;;2541611;54;20999;-66
2024/03/06 03:25:50;;;;;;;2.95;0.95;;;11.30;68.60;;;;;;2308049;54;21050;-65
2024/03/06 03:28:19;;;;;;;2.10;0.90;;;11.30;68.60;;;;;;2542640;54;21335;-65
2024/03/06 03:30:45;;;;;;;2.50;1.08;;;11.30;68.50;;;;;;2280714;55;21072;-66
2024/03/06 03:33:12;;;;;;;2.15;1.17;;;11.30;68.60;;;;;;2308547;54;20952;-65
2024/03/06 03:35:38;;;;;;;1.95;0.88;;;11.30;68.60;;;;;;2546666;54;20968;-66
2024/03/06 03:38:04;;;;;;;3.20;1.00;;;11.30;68.70;;;;;;2307920;54;21554;-66
2024/03/06 03:40:32;;;;;;;2.37;1.17;;;11.30;68.70;;;;;;2308220;54;21801;-65
2024/03/06 03:42:59;;;;;;;4.62;1.40;;;11.30;68.70;;;;;;2542116;54;21031;-65
2024/03/06 03:45:25;;;;;;;4.15;1.80;;;11.30;68.70;;;;;;2311336;54;20962;-66
2024/03/06 03:47:51;;;;;;;2.75;1.40;;;11.30;68.70;;;;;;2308151;54;20967;-66
2024/03/06 03:50:18;;;;;;;4.22;1.30;;;11.30;68.70;;;;;;2307897;54;20951;-66
2024/03/06 03:52:44;;;;;;;3.22;1.08;;;11.20;68.60;;;;;;2308368;54;21477;-66
2024/03/06 03:55:10;;;;;;;2.92;1.15;;;11.20;68.60;;;;;;2546720;54;21556;-65
2024/03/06 03:57:37;;;;;;;2.62;0.90;;;11.20;68.60;;;;;;2308252;54;20959;-65
2024/03/06 04:00:10;;;;;;;2.47;0.95;;;11.20;68.60;;;;;;2546620;54;20951;-66
2024/03/06 04:02:38;;;;;;;4.40;1.00;;;11.20;68.70;;;;;;2308341;54;21333;-65
2024/03/06 04:05:05;;;;;;;2.53;1.05;;;11.20;68.60;;;;;;2547190;54;20956;-66
2024/03/06 04:07:31;;;;;;;2.45;1.00;;;11.20;68.60;;;;;;2546917;54;21267;-66
2024/03/06 04:09:58;;;;;;;3.22;1.20;;;11.20;68.60;;;;;;2308458;54;21000;-66
2024/03/06 04:12:25;;;;;;;2.05;0.90;;;11.20;68.70;;;;;;2307470;54;21280;-65
2024/03/06 04:14:51;;;;;;;2.28;0.85;;;11.20;68.70;;;;;;2546452;54;21006;-66
2024/03/06 04:17:17;;;;;;;1.95;0.75;;;11.20;68.70;;;;;;2509779;54;20959;-65
2024/03/06 04:19:43;;;;;;;2.55;0.90;;;11.20;68.70;;;;;;2546730;54;20955;-66
2024/03/06 04:22:10;;;;;;;2.28;0.88;;;11.20;68.70;;;;;;2545817;53;20963;-66
2024/03/06 04:24:41;;;;;;;2.15;0.95;;;11.20;68.70;;;;;;2307407;55;21044;-66
2024/03/06 04:27:08;;;;;;;2.33;0.80;;;11.20;68.60;;;;;;2307142;55;21202;-65
2024/03/06 04:29:34;;;;;;;2.15;0.90;;;11.20;68.60;;;;;;2308981;54;21716;-67
2024/03/06 04:32:02;;;;;;;1.77;0.77;;;11.20;68.70;;;;;;2307762;54;21386;-66
2024/03/06 04:34:28;;;;;;;2.60;0.85;;;11.20;68.70;;;;;;2547164;53;20995;-66
2024/03/06 04:36:55;;;;;;;2.92;1.02;;;11.20;68.70;;;;;;2308150;54;21201;-66
2024/03/06 04:39:22;;;;;;;2.28;0.90;;;11.20;68.70;;;;;;2308320;54;21347;-66
2024/03/06 04:41:49;;;;;;;2.37;0.85;;;11.20;68.70;;;;;;2307886;54;21035;-66
2024/03/06 04:44:16;;;;;;;2.30;1.00;;;11.20;68.70;;;;;;2307690;55;20952;-65
2024/03/06 04:46:42;;;;;;;1.83;0.90;;;11.20;68.70;;;;;;2308128;55;21547;-65
2024/03/06 04:49:08;;;;;;;1.90;0.80;;;11.20;68.70;;;;;;2307986;55;20971;-65
2024/03/06 04:51:35;;;;;;;2.12;0.95;;;11.20;68.70;;;;;;2317709;55;21088;-66
2024/03/06 04:54:01;;;;;;;2.17;0.98;;;11.10;68.60;;;;;;2339760;54;20985;-66
2024/03/06 04:56:27;;;;;;;1.48;0.70;;;11.20;68.70;;;;;;2586028;53;21315;-66
2024/03/06 04:58:54;;;;;;;2.15;0.90;;;11.20;68.70;;;;;;2339738;54;21012;-66
2024/03/06 05:01:21;;;;;;;2.28;0.90;;;11.20;68.70;;;;;;2586024;53;21001;-66
2024/03/06 05:03:47;;;;;;;2.15;0.80;;;11.20;68.70;;;;;;2551885;53;21003;-65
2024/03/06 05:06:32;;;;;;;2.42;1.05;;;11.20;68.70;;;;;;2586066;53;20921;-66
2024/03/06 05:09:17;;;;;;;2.22;1.08;;;11.20;68.70;;;;;;2315939;54;21811;-66
2024/03/06 05:12:01;;;;;;;2.22;1.10;;;11.20;68.70;;;;;;2551932;53;21001;-65
2024/03/06 05:14:45;;;;;;;4.28;1.25;;;11.10;68.60;;;;;;2338259;54;21490;-66
2024/03/06 05:17:29;;;;;;;3.05;1.40;;;11.10;68.60;;;;;;2584547;53;21494;-65
2024/03/06 05:20:14;;;;;;;3.50;1.20;;;11.10;68.60;;;;;;2329291;54;21667;-66
2024/03/06 05:23:01;;;;;;;4.05;1.20;;;11.10;68.70;;;;;;2574324;53;20996;-66
2024/03/06 05:25:45;;;;;;;2.50;1.23;;;11.10;68.70;;;;;;2339957;54;21009;-66
2024/03/06 05:28:29;;;;;;;2.62;1.17;;;11.10;68.80;;;;;;2572680;53;21582;-66
2024/03/06 05:31:18;;;;;;;2.30;1.10;;;11.10;68.80;;;;;;2305134;55;20986;-66
2024/03/06 05:34:04;;;;;;;2.90;1.12;;;11.10;68.70;;;;;;2584887;53;21064;-66
2024/03/06 05:36:49;;;;;;;2.12;0.93;;;11.10;68.70;;;;;;2338878;54;21402;-67
2024/03/06 05:39:34;;;;;;;3.53;1.33;;;11.10;68.70;;;;;;2585149;53;20957;-66
2024/03/06 05:42:18;;;;;;;3.15;1.37;;;11.10;68.80;;;;;;2339209;54;21813;-66
2024/03/06 05:45:05;;;;;;;7.72;2.22;;;11.10;68.80;;;;;;2585362;53;21272;-66
2024/03/06 05:47:49;;;;;;;6.53;3.37;;;11.10;68.70;;;;;;2340243;54;21504;-66
2024/03/06 05:50:34;;;;;;;9.98;4.97;;;11.10;68.80;;;;;;2585784;53;20949;-66
2024/03/06 05:53:21;;;;;;;6.90;3.70;;;11.00;68.90;;;;;;2340190;54;20973;-66
2024/03/06 05:56:06;;;;;;;5.00;2.72;;;11.00;69.10;;;;;;2585940;53;21370;-66
2024/03/06 05:58:50;;;;;;;5.40;2.67;;;11.00;69.30;;;;;;2340281;54;20988;-66
2024/03/06 06:01:20;;;;;;;4.82;2.70;;;11.00;69.50;;;;;;2584994;53;20941;-66
2024/03/06 06:03:49;;;;;;;5.60;2.42;;;11.00;69.70;;;;;;2586395;53;21016;-66
2024/03/06 06:06:16;;;;;;;11.63;4.53;;;11.00;69.80;;;;;;2339969;54;21332;-66
2024/03/06 06:08:44;;;;;;;14.05;6.32;;;11.00;70.70;;;;;;2340153;54;21024;-65
2024/03/06 06:11:10;;;;;;;10.35;5.15;;;11.00;70.10;;;;;;2584480;53;21157;-67
2024/03/06 06:13:37;;;;;;;8.63;3.78;;;11.00;70.20;;;;;;2339728;54;20932;-66
2024/03/06 06:16:05;;;;;;;6.53;2.75;;;11.00;70.30;;;;;;2585624;53;21879;-66
2024/03/06 06:18:32;;;;;;;6.43;2.42;;;11.00;70.30;;;;;;2564765;53;21456;-66
2024/03/06 06:20:58;;;;;;;4.15;1.87;;;11.00;70.30;;;;;;2572519;53;21502;-66
2024/03/06 06:23:25;;;;;;;4.25;1.67;;;11.00;70.40;;;;;;2584250;53;20996;-65
2024/03/06 06:25:51;;;;;;;3.28;1.60;;;11.00;70.40;;;;;;2585339;53;21541;-66
2024/03/06 06:28:18;;;;;;;3.60;1.52;;;11.00;70.50;;;;;;2339153;54;21001;-66
2024/03/06 06:30:44;;;;;;;3.37;1.60;;;11.00;70.60;;;;;;2339845;54;21402;-66
2024/03/06 06:33:13;;;;;;;14.90;8.10;;;11.00;70.60;;;;;;2339469;54;20949;-65
2024/03/06 06:35:39;;;;;;;26.60;14.23;;;11.00;70.70;;;;;;2339865;54;21016;-65
2024/03/06 06:38:05;;;;;;;17.30;9.10;;;11.00;70.70;;;;;;2585796;53;20997;-66
2024/03/06 06:40:32;;;;;;;10.82;5.87;;;11.00;70.70;;;;;;2339607;54;21004;-66
2024/03/06 06:42:59;;;;;;;8.07;4.25;;;11.00;70.80;;;;;;2339508;54;20976;-66
2024/03/06 06:45:26;;;;;;;7.32;3.50;;;11.00;70.80;;;;;;2339839;54;21484;-66
2024/03/06 06:47:53;;;;;;;6.68;3.20;;;11.00;70.80;;;;;;2586311;53;20960;-66
2024/03/06 06:50:22;;;;;;;5.32;2.30;;;11.00;70.90;;;;;;2339609;54;21536;-65
2024/03/06 06:52:49;;;;;;;5.78;2.30;;;11.00;71.00;;;;;;2586582;53;21584;-66
2024/03/06 06:55:15;;;;;;;4.10;2.22;;;11.00;71.00;;;;;;2340289;54;20941;-66
2024/03/06 06:57:43;;;;;;;4.32;2.30;;;11.00;71.00;;;;;;2340291;54;21319;-67
2024/03/06 07:00:13;;;;;;;3.47;1.77;;;11.00;71.10;;;;;;2579675;53;20969;-66
2024/03/06 07:02:41;;;;;;;2.95;1.65;;;11.00;71.10;;;;;;2558926;53;21017;-66
2024/03/06 07:05:08;;;;;;;3.47;1.67;;;11.00;71.10;;;;;;2339682;54;21708;-66
2024/03/06 07:07:34;;;;;;;3.67;1.80;;;11.00;71.10;;;;;;2340122;54;21095;-66
2024/03/06 07:10:04;;;;;;;3.65;1.85;;;11.00;71.20;;;;;;2586342;53;20993;-66
2024/03/06 07:12:31;;;;;;;5.07;1.85;;;11.00;71.20;;;;;;2340031;54;21320;-65
2024/03/06 07:14:59;;;;;;;3.15;1.67;;;11.00;71.20;;;;;;2586295;53;21791;-66
2024/03/06 07:17:25;;;;;;;4.72;1.80;;;11.00;71.30;;;;;;2339863;54;20941;-65
2024/03/06 07:19:52;;;;;;;3.72;1.80;;;11.00;71.30;;;;;;2340139;54;21008;-65
2024/03/06 07:22:20;;;;;;;3.75;1.80;;;11.00;71.30;;;;;;2340623;54;20996;-66
2024/03/06 07:24:46;;;;;;;3.95;1.60;;;11.00;71.30;;;;;;2339788;54;20956;-65
2024/03/06 07:27:12;;;;;;;3.67;1.52;;;11.00;71.40;;;;;;2564844;53;22524;-66
2024/03/06 07:29:39;;;;;;;4.53;1.83;;;11.00;71.40;;;;;;2574721;53;21265;-66
2024/03/06 07:32:06;;;;;;;3.03;1.60;;;11.00;71.40;;;;;;2586374;53;20961;-66
2024/03/06 07:34:32;;;;;;;3.45;1.67;;;11.00;71.50;;;;;;2585515;53;21012;-67
2024/03/06 07:37:00;;;;;;;3.53;1.70;;;11.00;71.50;;;;;;2339806;54;20944;-65
2024/03/06 07:39:28;;;;;;;3.97;1.80;;;11.00;71.50;;;;;;2339679;54;20976;-66
2024/03/06 07:41:54;;;;;;;3.85;1.80;;;11.00;71.50;;;;;;2322925;54;20998;-66
2024/03/06 07:44:20;;;;;;;3.60;1.80;;;11.00;71.50;;;;;;2333149;54;21012;-66
2024/03/06 07:46:47;;;;;;;2.70;1.40;;;11.00;71.50;;;;;;2339940;54;20933;-65
2024/03/06 07:49:13;;;;;;;3.70;1.90;;;11.00;71.50;;;;;;2339744;54;20980;-67
2024/03/06 07:51:42;;;;;;;4.37;1.50;;;11.00;71.40;;;;;;2340298;54;21521;-66
2024/03/06 07:54:09;;;;;;;3.25;1.60;;;11.00;71.40;;;;;;2586120;53;21044;-65
2024/03/06 07:56:36;;;;;;;3.28;1.45;;;11.00;71.50;;;;;;2585780;53;20925;-66
2024/03/06 07:59:02;;;;;;;3.78;1.33;;;11.00;71.50;;;;;;2586406;53;21004;-66
2024/03/06 08:01:29;;;;;;;4.28;1.35;;;11.00;71.60;;;;;;2585555;53;21560;-66
2024/03/06 08:03:55;;;;;;;3.90;1.30;;;11.00;71.50;;;;;;2340083;54;20917;-66
2024/03/06 08:06:21;;;;;;;3.70;1.40;;;11.00;71.60;;;;;;2340052;54;20949;-65
2024/03/06 08:08:48;;;;;;;2.70;1.20;;;11.00;71.60;;;;;;2586236;53;20928;-66
2024/03/06 08:11:14;;;;;;;3.03;1.20;;;11.00;71.60;;;;;;2339870;54;21036;-66
2024/03/06 08:13:41;;;;;;;3.17;1.20;;;11.00;71.60;;;;;;2340050;54;21056;-67
2024/03/06 08:16:07;;;;;;;2.67;1.30;;;11.00;71.60;;;;;;2585843;53;21020;-67
2024/03/06 08:18:34;;;;;;;2.75;1.00;;;11.00;71.60;;;;;;2339297;54;20968;-66
2024/03/06 08:21:01;;;;;;;2.17;0.70;;;11.00;71.60;;;;;;2336273;54;21864;-66
2024/03/06 08:23:28;;;;;;;2.65;0.90;;;11.00;71.60;;;;;;2320508;54;20936;-66
2024/03/06 08:25:55;;;;;;;2.22;0.98;;;11.00;71.60;;;;;;2586384;53;21754;-66
2024/03/06 08:28:21;;;;;;;2.55;0.98;;;11.00;71.60;;;;;;2340030;54;20940;-67
2024/03/06 08:30:48;;;;;;;2.78;1.20;;;11.00;71.70;;;;;;2339736;54;21119;-65
2024/03/06 08:33:16;;;;;;;2.35;1.15;;;11.00;71.70;;;;;;2585794;53;21477;-66
2024/03/06 08:35:42;;;;;;;3.25;1.40;;;11.00;71.80;;;;;;2585874;53;21465;-66
2024/03/06 08:38:08;;;;;;;2.60;1.27;;;11.10;71.90;;;;;;2340221;54;20956;-65
2024/03/06 08:40:35;;;;;;;4.18;1.35;;;11.00;71.90;;;;;;2585837;53;21393;-66
2024/03/06 08:43:04;;;;;;;3.30;1.40;;;11.10;72.00;;;;;;2585740;53;20948;-66
2024/03/06 08:45:31;;;;;;;3.65;1.37;;;11.10;72.10;;;;;;2339560;54;20932;-67
2024/03/06 08:47:57;;;;;;;3.08;1.35;;;11.10;72.20;;;;;;2586252;53;21418;-67
2024/03/06 08:50:24;;;;;;;2.60;1.12;;;11.10;72.20;;;;;;2554251;53;20962;-67
2024/03/06 08:52:51;;;;;;;2.70;1.17;;;11.10;72.20;;;;;;2339277;54;20916;-66
2024/03/06 08:55:17;;;;;;;3.03;1.37;;;11.10;72.30;;;;;;2339713;54;21296;-65
2024/03/06 08:57:44;;;;;;;2.78;1.17;;;11.10;72.30;;;;;;2585421;53;21901;-66
2024/03/06 09:00:12;;;;;;;2.90;1.20;;;11.20;72.40;;;;;;2340062;54;20956;-67
2024/03/06 09:02:38;;;;;;;2.97;1.20;;;11.20;72.40;;;;;;2339622;54;21009;-67
2024/03/06 09:05:06;;;;;;;3.40;1.52;;;11.20;72.40;;;;;;2339831;54;20925;-67
2024/03/06 09:07:37;;;;;;;4.43;1.55;;;11.20;73.10;;;;;;2566627;53;21542;-65
2024/03/06 09:10:07;;;;;;;3.53;1.40;;;11.20;72.40;;;;;;2328411;54;20949;-67
2024/03/06 09:12:33;;;;;;;3.17;1.52;;;11.20;72.30;;;;;;2339368;54;21068;-66
2024/03/06 09:15:00;;;;;;;3.50;1.62;;;11.30;72.40;;;;;;2323042;54;21800;-66
2024/03/06 09:17:27;;;;;;;2.58;1.17;;;11.30;72.40;;;;;;2333500;54;21829;-66
2024/03/06 09:19:56;;;;;;;3.00;1.20;;;11.30;72.50;;;;;;2338779;54;20924;-67
2024/03/06 09:22:25;;;;;;;5.07;1.80;;;11.40;72.60;;;;;;2316923;55;21038;-66
2024/03/06 09:24:51;;;;;;;3.95;1.25;;;11.40;72.40;;;;;;2560823;53;21078;-65
2024/03/06 09:27:17;;;;;;;3.47;1.42;;;11.40;72.50;;;;;;2330998;54;21024;-66
2024/03/06 09:29:45;;;;;;;4.30;1.40;;;11.40;72.50;;;;;;2332699;54;21006;-65
2024/03/06 09:32:15;;;;;;;3.40;1.20;;;11.40;72.50;;;;;;2564433;53;20957;-67
2024/03/06 09:34:44;;;;;;;3.90;1.50;;;11.50;72.60;;;;;;2553336;53;20994;-67
2024/03/06 09:37:10;;;;;;;3.80;1.42;;;11.50;72.60;;;;;;2339657;54;21016;-67
2024/03/06 09:39:36;;;;;;;3.95;1.75;;;11.50;72.70;;;;;;2339345;54;20953;-67
2024/03/06 09:42:03;;;;;;;3.70;1.60;;;11.60;72.80;;;;;;2340084;54;21197;-66
2024/03/06 09:44:29;;;;;;;3.97;1.17;;;11.60;72.90;;;;;;2586360;53;21422;-66
2024/03/06 09:46:56;;;;;;;3.22;1.50;;;11.60;73.00;;;;;;2337889;54;21839;-66
2024/03/06 09:49:22;;;;;;;3.05;1.30;;;11.60;73.10;;;;;;2318086;54;21147;-66
2024/03/06 09:51:52;;;;;;;2.50;1.30;;;11.70;73.20;;;;;;2339823;54;21457;-66
2024/03/06 09:54:21;;;;;;;2.97;1.25;;;11.70;73.20;;;;;;2585643;53;21013;-66
2024/03/06 09:56:48;;;;;;;3.25;1.67;;;11.80;73.30;;;;;;2327366;54;20961;-65
2024/03/06 09:59:14;;;;;;;3.28;1.80;;;11.80;73.30;;;;;;2330076;54;21332;-65
2024/03/06 10:01:50;;;;;;;3.97;1.60;;;11.90;73.30;;;;;;2585137;53;20964;-66
2024/03/06 10:04:26;;;;;;;2.87;1.30;;;11.90;73.40;;;;;;2340285;54;21004;-66
2024/03/06 10:06:54;;;;;;;4.25;1.73;;;12.00;73.50;;;;;;2572451;53;22134;-66
2024/03/06 10:09:21;;;;;;;6.20;1.75;;;12.00;73.50;;;;;;2567260;53;20948;-67
2024/03/06 10:11:47;;;;;;;3.35;1.87;;;12.10;73.40;;;;;;2584393;53;21026;-66
2024/03/06 10:14:13;;;;;;;4.00;1.58;;;12.10;73.10;;;;;;2584312;53;21279;-66
2024/03/06 10:17:01;;;;;;;3.17;1.50;;;12.10;72.80;;;;;;2316115;54;21357;-65
2024/03/06 10:19:29;;;;;;;3.45;1.62;;;12.20;72.30;;;;;;2339345;54;21017;-66
2024/03/06 10:21:56;;;;;;;5.32;1.75;;;12.20;73.00;;;;;;2339080;54;21010;-66
2024/03/06 10:24:27;;;;;;;3.78;1.77;;;12.20;73.20;;;;;;2332464;54;21034;-66
2024/03/06 10:26:58;;;;;;;3.55;1.50;;;12.30;73.40;;;;;;2324285;54;20984;-65
2024/03/06 10:29:25;;;;;;;3.17;1.70;;;12.30;73.50;;;;;;2318704;54;22534;-66
2024/03/06 10:31:52;;;;;;;3.55;1.70;;;12.40;73.80;;;;;;2530733;54;21354;-66
2024/03/06 10:34:20;;;;;;;3.62;1.90;;;12.50;73.90;;;;;;2337238;54;21676;-67
2024/03/06 10:36:49;;;;;;;4.32;1.62;;;12.60;73.90;;;;;;2584750;53;21008;-67
2024/03/06 10:39:15;;;;;;;3.58;1.70;;;12.60;73.70;;;;;;2340396;54;20949;-66
2024/03/06 10:41:42;;;;;;;3.55;1.50;;;12.60;73.60;;;;;;2339367;54;21593;-66
2024/03/06 10:44:13;;;;;;;2.80;1.40;;;12.80;73.50;;;;;;2339942;54;21453;-67
2024/03/06 10:46:44;;;;;;;4.37;1.70;;;12.70;73.10;;;;;;2315753;54;21262;-67
2024/03/06 10:49:13;;;;;;;3.80;1.55;;;12.70;73.00;;;;;;2339888;54;21013;-67
2024/03/06 10:51:45;;;;;;;3.62;1.62;;;12.80;72.80;;;;;;2585906;53;20941;-66
2024/03/06 10:54:11;;;;;;;3.60;1.75;;;12.80;73.40;;;;;;2339782;54;21716;-66
2024/03/06 10:56:43;;;;;;;3.72;1.42;;;12.80;72.70;;;;;;2339855;54;20997;-66
2024/03/06 10:59:12;;;;;;;4.20;1.70;;;12.90;72.60;;;;;;2586145;53;20953;-67
2024/03/06 11:01:38;;;;;;;5.43;1.73;;;12.90;72.60;;;;;;2339337;54;20997;-67
2024/03/06 11:04:05;;;;;;;7.47;2.10;;;12.90;72.60;;;;;;2339699;54;21513;-66
2024/03/06 11:06:31;;;;;;;5.12;1.98;;;13.00;72.50;;;;;;2339098;54;20960;-66
2024/03/06 11:08:58;;;;;;;3.67;1.70;;;13.00;72.50;;;;;;2340085;54;21981;-65
2024/03/06 11:11:24;;;;;;;3.17;1.85;;;13.00;72.50;;;;;;2339426;54;21068;-66
2024/03/06 11:13:57;;;;;;;3.20;1.70;;;13.00;72.50;;;;;;2341586;54;20996;-66
2024/03/06 11:16:33;;;;;;;3.20;1.80;;;13.10;72.50;;;;;;2339999;54;20993;-66
2024/03/06 11:19:09;;;;;;;4.10;2.25;;;13.10;71.90;;;;;;2339104;54;21997;-66
2024/03/06 11:21:37;;;;;;;3.40;1.65;;;13.10;71.30;;;;;;2339556;54;20957;-67
2024/03/06 11:24:16;;;;;;;3.05;1.65;;;13.10;71.70;;;;;;2585231;53;20929;-66
2024/03/06 11:26:46;;;;;;;3.92;1.73;;;13.10;71.60;;;;;;2339854;54;20953;-66
2024/03/06 11:29:16;;;;;;;4.07;1.65;;;13.10;72.10;;;;;;2340295;54;21036;-67
2024/03/06 11:32:00;;;;;;;5.90;2.15;;;13.10;72.20;;;;;;2584782;53;20964;-66
2024/03/06 11:34:27;;;;;;;4.62;2.20;;;13.10;71.50;;;;;;2557883;53;21345;-66
2024/03/06 11:36:56;;;;;;;4.82;2.20;;;13.10;71.90;;;;;;2337116;54;20948;-66
2024/03/06 11:39:24;;;;;;;4.25;2.40;;;13.10;71.80;;;;;;2339948;54;20933;-66
2024/03/06 11:41:50;;;;;;;4.25;2.12;;;13.10;71.80;;;;;;2585489;53;20952;-67
2024/03/06 11:44:21;;;;;;;4.68;2.50;;;13.20;72.20;;;;;;2339754;54;21012;-67
2024/03/06 11:47:14;;;;;;;3.83;2.00;;;13.20;72.20;;;;;;2339986;54;21009;-66
2024/03/06 11:49:42;;;;;;;3.70;1.80;;;13.20;71.70;;;;;;2338426;54;20957;-65
2024/03/06 11:52:08;;;;;;;3.53;1.70;;;13.20;71.90;;;;;;2585677;53;21384;-66
2024/03/06 11:54:35;;;;;;;6.10;2.22;;;13.20;71.90;;;;;;2339934;54;22450;-66
2024/03/06 11:57:02;;;;;;;5.03;2.58;;;13.30;71.90;;;;;;2339934;54;20952;-66
2024/03/06 11:59:33;;;;;;;5.12;2.25;;;13.30;72.00;;;;;;2325750;54;21014;-66
2024/03/06 12:02:03;;;;;;;4.25;2.15;;;13.30;72.20;;;;;;2331304;54;20976;-66
2024/03/06 12:04:33;;;;;;;5.05;2.60;;;13.30;72.20;;;;;;2339894;54;21008;-67
2024/03/06 12:07:00;;;;;;;3.60;2.28;;;13.40;72.30;;;;;;2339459;54;21735;-66
2024/03/06 12:09:26;;;;;;;5.10;2.58;;;13.40;72.60;;;;;;2316728;54;20960;-66
2024/03/06 12:11:53;;;;;;;5.03;2.62;;;13.40;72.60;;;;;;2585885;53;20957;-66
2024/03/06 12:14:19;;;;;;;4.68;2.45;;;13.50;72.70;;;;;;2339621;54;20964;-67
2024/03/06 12:17:48;;;;;;;4.90;2.65;;;13.50;72.50;;;;;;2340151;54;20984;-66
2024/03/06 12:20:17;;;;;;;3.85;2.15;;;13.60;70.90;;;;;;2308059;54;21405;-67
2024/03/06 12:22:45;;;;;;;8.63;2.70;;;13.60;72.00;;;;;;2307297;54;21760;-67
2024/03/06 12:25:21;;;;;;;5.10;2.20;;;13.60;71.90;;;;;;2308154;54;20999;-66
2024/03/06 12:27:47;;;;;;;3.92;2.15;;;13.70;71.70;;;;;;2307549;54;20975;-65
2024/03/06 12:30:22;;;;;;;5.15;2.00;;;13.70;72.00;;;;;;2307916;54;21018;-66
2024/03/06 12:33:04;;;;;;;5.00;2.30;;;13.70;71.90;;;;;;2542925;54;20944;-66
2024/03/06 12:35:30;;;;;;;5.00;2.47;;;13.70;71.30;;;;;;2308190;54;21043;-66
2024/03/06 12:37:57;;;;;;;5.50;2.03;;;13.70;71.80;;;;;;2307937;54;21035;-66
2024/03/06 12:40:24;;;;;;;5.95;2.08;;;13.80;71.90;;;;;;2308189;54;20979;-66
2024/03/06 12:42:52;;;;;;;4.43;2.10;;;13.80;71.80;;;;;;2307145;54;21496;-66
2024/03/06 12:45:19;;;;;;;3.97;2.10;;;13.80;71.80;;;;;;2546884;54;21026;-66
2024/03/06 12:47:48;;;;;;;3.87;2.00;;;13.80;71.80;;;;;;2307669;54;20956;-67
2024/03/06 12:50:14;;;;;;;4.25;2.40;;;13.80;71.70;;;;;;2311008;54;20971;-65
2024/03/06 12:52:41;;;;;;;3.28;1.92;;;13.80;71.30;;;;;;2282881;55;20976;-66
2024/03/06 12:55:10;;;;;;;3.58;2.05;;;13.80;71.00;;;;;;2281479;55;20999;-66